Time;durP1;ratioP1;P1;durP2;ratioP2;P2;SDS_P1;SDS_P2;PMS_P1;PMS_P2;Temp;Humidity;BMP_temperature;BMP_pressure;BME280_temperature;BME280_humidity;BME280_pressure;Samples;Min_cycle;Max_cycle;Signal;HPM_P1;HPM_P2
2022/11/16 00:01:23;;;;;;;;;1.50;1.50;;;;;13.36;62.88;99447.97;5068241;28;45375;-39
2022/11/16 00:03:50;;;;;;;;;2.75;2.00;;;;;13.34;63.13;99447.22;5068493;27;46104;-40
2022/11/16 00:06:16;;;;;;;;;4.75;3.25;;;;;13.32;63.20;99451.75;5067963;27;46407;-40
2022/11/16 00:08:43;;;;;;;;;5.00;1.50;;;;;13.27;63.35;99454.59;5075063;27;45194;-40
2022/11/16 00:11:12;;;;;;;;;3.75;2.50;;;;;13.23;63.59;99456.56;5071807;28;45316;-40
2022/11/16 00:13:39;;;;;;;;;3.25;2.00;;;;;13.20;62.99;99454.09;5069644;27;45269;-40
2022/11/16 00:16:05;;;;;;;;;2.00;1.00;;;;;13.16;63.45;99444.72;5071508;27;46217;-40
2022/11/16 00:18:31;;;;;;;;;2.00;2.00;;;;;13.13;63.67;99450.13;5069321;27;45730;-40
2022/11/16 00:20:57;;;;;;;;;2.50;1.75;;;;;13.11;63.53;99449.38;5069395;28;45420;-40
2022/11/16 00:23:22;;;;;;;;;4.75;3.00;;;;;13.11;63.79;99452.84;5070817;28;45410;-40
2022/11/16 00:25:48;;;;;;;;;5.50;2.25;;;;;13.10;63.44;99451.19;5071189;27;46053;-39
2022/11/16 00:28:14;;;;;;;;;4.00;2.75;;;;;13.10;63.83;99455.56;5072697;27;45453;-40
2022/11/16 00:30:39;;;;;;;;;3.50;2.00;;;;;13.09;63.85;99452.09;5072124;27;45365;-40
2022/11/16 00:33:05;;;;;;;;;3.00;2.00;;;;;13.06;63.80;99454.06;5062643;28;45339;-40
2022/11/16 00:35:31;;;;;;;;;4.00;2.00;;;;;13.05;63.91;99452.34;5066858;28;46375;-40
2022/11/16 00:37:56;;;;;;;;;2.00;2.00;;;;;13.04;63.83;99454.13;5079158;28;45441;-40
2022/11/16 00:40:22;;;;;;;;;3.00;2.00;;;;;13.04;63.53;99454.13;5071526;28;45295;-40
2022/11/16 00:42:48;;;;;;;;;3.50;2.00;;;;;13.04;63.37;99448.06;5068035;27;45352;-40
2022/11/16 00:45:13;;;;;;;;;7.00;2.00;;;;;13.02;63.59;99449.94;5073844;27;66527;-40
2022/11/16 00:47:38;;;;;;;;;2.00;2.00;;;;;12.98;63.89;99451.03;5078161;27;45415;-40
2022/11/16 00:50:04;;;;;;;;;3.75;2.25;;;;;12.96;63.76;99447.63;5074350;27;45514;-39
2022/11/16 00:52:30;;;;;;;;;4.50;3.00;;;;;12.91;63.81;99448.75;5074303;27;45512;-39
2022/11/16 00:54:55;;;;;;;;;2.00;2.00;;;;;12.91;63.75;99445.28;5083103;27;65133;-39
2022/11/16 00:57:21;;;;;;;;;4.00;3.00;;;;;12.88;63.73;99454.19;5079239;27;45244;-39
2022/11/16 00:59:46;;;;;;;;;5.50;4.50;;;;;12.89;63.61;99453.25;5072941;27;45189;-39
2022/11/16 01:02:11;;;;;;;;;6.25;5.75;;;;;12.88;64.02;99454.19;5060920;27;61832;-39
2022/11/16 01:04:37;;;;;;;;;6.25;4.25;;;;;12.87;64.05;99449.88;5072270;27;45437;-40
2022/11/16 01:07:02;;;;;;;;;4.25;2.75;;;;;12.88;64.02;99453.34;5072056;28;68768;-40
2022/11/16 01:09:27;;;;;;;;;7.25;6.25;;;;;12.88;64.51;99464.69;5063341;28;45233;-39
2022/11/16 01:12:08;;;;;;;;;1.25;1.00;;;;;12.89;63.78;99463.75;5076072;27;45157;-39
2022/11/16 01:14:38;;;;;;;;;5.75;3.25;;;;;12.88;64.27;99467.31;5075259;27;45396;-43
2022/11/16 01:17:04;;;;;;;;;3.75;2.50;;;;;12.87;64.08;99460.38;5075158;28;45259;-39
2022/11/16 01:19:29;;;;;;;;;6.50;2.00;;;;;12.86;64.19;99450.81;5078529;27;45691;-39
2022/11/16 01:21:55;;;;;;;;;5.25;3.00;;;;;12.87;64.04;99447.25;5087833;27;46405;-39
2022/11/16 01:24:21;;;;;;;;;4.00;1.50;;;;;12.90;64.12;99447.06;5072731;28;57976;-39
2022/11/16 01:26:46;;;;;;;;;4.75;2.50;;;;;12.93;63.88;99453.94;5062677;28;45696;-40
2022/11/16 01:29:11;;;;;;;;;2.00;2.00;;;;;12.95;64.24;99451.22;5074038;28;45537;-39
2022/11/16 01:31:37;;;;;;;;;2.75;2.25;;;;;12.95;64.14;99445.97;5061218;28;70195;-40
2022/11/16 01:34:02;;;;;;;;;7.50;5.00;;;;;12.96;64.10;99439.75;5069227;27;58536;-39
2022/11/16 01:36:28;;;;;;;;;5.75;3.00;;;;;12.97;63.69;99454.59;5073641;28;55732;-39
2022/11/16 01:38:53;;;;;;;;;3.50;2.25;;;;;12.96;63.69;99453.75;5067875;27;63635;-44
2022/11/16 01:41:23;;;;;;;;;4.25;2.75;;;;;12.96;64.04;99453.75;5062494;28;45494;-39
2022/11/16 01:43:50;;;;;;;;;5.00;1.75;;;;;12.97;63.50;99454.59;5073678;28;47299;-39
2022/11/16 01:46:15;;;;;;;;;3.00;3.00;;;;;12.93;63.66;99453.09;5076542;27;45532;-39
2022/11/16 01:48:41;;;;;;;;;4.25;2.00;;;;;12.91;63.57;99453.19;5072140;27;47198;-39
2022/11/16 01:51:06;;;;;;;;;2.00;1.00;;;;;12.88;63.76;99445.47;5071246;27;66261;-39
2022/11/16 01:53:32;;;;;;;;;2.00;1.00;;;;;12.86;63.39;99442.91;5075001;27;46106;-39
2022/11/16 01:55:58;;;;;;;;;1.75;1.25;;;;;12.88;63.29;99448.94;5075184;27;50637;-39
2022/11/16 01:58:24;;;;;;;;;2.00;2.00;;;;;12.89;63.33;99447.13;5075655;27;61957;-39
2022/11/16 02:00:49;;;;;;;;;4.50;1.00;;;;;12.89;63.54;99452.38;5076831;27;45463;-39
2022/11/16 02:03:19;;;;;;;;;5.00;1.25;;;;;12.87;63.59;99452.50;5079354;27;53626;-39
2022/11/16 02:05:50;;;;;;;;;4.75;2.50;;;;;12.86;63.40;99455.22;5086056;27;45705;-39
2022/11/16 02:12:33;;;;;;;;;6.75;3.00;;;;;12.83;63.24;99440.47;5073277;27;45453;-39
2022/11/16 02:15:13;;;;;;;;;4.75;2.00;;;;;12.82;63.40;99446.66;5073503;28;46599;-39
2022/11/16 02:17:50;;;;;;;;;5.25;2.00;;;;;12.80;63.47;99448.53;5070385;28;45537;-39
2022/11/16 02:20:27;;;;;;;;;3.50;2.00;;;;;12.79;63.55;99448.63;5069409;28;45532;-39
2022/11/16 02:23:23;;;;;;;;;5.75;2.75;;;;;12.77;63.45;99451.34;5067884;27;45547;-39
2022/11/16 02:26:03;;;;;;;;;3.75;1.25;;;;;12.73;63.27;99450.66;5058832;28;46513;-39
2022/11/16 02:28:48;;;;;;;;;4.75;1.75;;;;;12.70;63.44;99444.75;5075985;28;45311;-39
2022/11/16 02:31:18;;;;;;;;;2.25;1.00;;;;;12.66;63.43;99448.44;5068424;28;45330;-44
2022/11/16 02:33:46;;;;;;;;;4.00;1.00;;;;;12.63;63.18;99452.09;5068008;28;45249;-45
2022/11/16 02:36:14;;;;;;;;;4.75;2.00;;;;;12.61;63.11;99447.88;5068123;27;72016;-39
2022/11/16 02:38:46;;;;;;;;;6.00;2.75;;;;;12.60;63.35;99449.66;5065252;28;45853;-39
2022/11/16 02:41:16;;;;;;;;;2.00;1.50;;;;;12.58;63.07;99454.13;5064012;28;45519;-39
2022/11/16 02:44:00;;;;;;;;;6.50;2.00;;;;;12.56;63.38;99445.50;5061696;28;45268;-39
2022/11/16 02:46:28;;;;;;;;;2.75;1.00;;;;;12.54;63.23;99444.75;5071546;27;46404;-40
2022/11/16 02:48:57;;;;;;;;;2.00;1.00;;;;;12.53;62.89;99440.41;5073226;28;45275;-39
2022/11/16 02:51:24;;;;;;;;;2.50;1.00;;;;;12.49;63.43;99434.50;5075143;28;45506;-39
2022/11/16 02:53:58;;;;;;;;;1.50;0.25;;;;;12.49;62.84;99428.41;5071961;28;55323;-39
2022/11/16 02:56:24;;;;;;;;;3.75;2.00;;;;;12.46;63.01;99437.28;5076519;28;46602;-39
2022/11/16 02:58:49;;;;;;;;;1.50;1.00;;;;;12.44;63.51;99436.53;5075658;27;45350;-39
2022/11/16 03:01:18;;;;;;;;;3.00;2.00;;;;;12.44;63.28;99433.91;5065373;28;46111;-39
2022/11/16 03:03:57;;;;;;;;;3.75;1.00;;;;;12.43;63.24;99431.38;5065550;28;45327;-39
2022/11/16 03:06:30;;;;;;;;;2.00;1.00;;;;;12.42;62.93;99433.16;5056969;28;47614;-39
2022/11/16 03:09:00;;;;;;;;;4.00;1.00;;;;;12.40;62.52;99428.94;5058746;28;45317;-40
2022/11/16 03:14:16;;;;;;;;;4.50;1.00;;;;;12.37;62.73;99431.72;5064041;28;45202;-39
2022/11/16 03:16:51;;;;;;;;;2.00;0.00;;;;;12.37;63.28;99427.31;5065613;28;47151;-40
2022/11/16 03:19:22;;;;;;;;;3.00;1.00;;;;;12.35;62.96;99424.78;5072332;28;45484;-39
2022/11/16 03:21:56;;;;;;;;;4.50;1.75;;;;;12.35;63.17;99426.56;5071433;28;45471;-39
2022/11/16 03:24:22;;;;;;;;;4.00;1.00;;;;;12.37;62.81;99424.69;5081739;27;45423;-40
2022/11/16 03:26:50;;;;;;;;;1.50;1.00;;;;;12.38;62.81;99418.53;5067488;28;45946;-40
2022/11/16 03:29:27;;;;;;;;;1.25;1.00;;;;;12.38;62.83;99421.16;5081129;27;45465;-39
2022/11/16 03:31:58;;;;;;;;;1.00;1.00;;;;;12.37;62.72;99422.06;5071944;27;45426;-39
2022/11/16 03:34:28;;;;;;;;;4.00;0.00;;;;;12.38;62.79;99409.78;5072930;28;45336;-39
2022/11/16 03:36:54;;;;;;;;;4.00;2.50;;;;;12.40;62.78;99405.31;5075799;27;48421;-39
2022/11/16 03:39:25;;;;;;;;;1.00;1.00;;;;;12.41;62.59;99400.00;5073387;28;60775;-39
2022/11/16 03:41:51;;;;;;;;;2.25;1.75;;;;;12.44;62.98;99396.34;5080230;27;45527;-39
2022/11/16 03:44:18;;;;;;;;;6.50;1.50;;;;;12.45;62.38;99401.50;5072993;28;59272;-39
2022/11/16 03:46:44;;;;;;;;;2.00;1.00;;;;;12.47;62.39;99398.78;5066916;27;61580;-39
2022/11/16 03:49:10;;;;;;;;;2.50;1.75;;;;;12.47;62.53;99399.63;5106384;27;45824;-39
2022/11/16 03:51:36;;;;;;;;;2.25;1.00;;;;;12.48;62.53;99403.97;5070853;27;59298;-39
2022/11/16 03:54:01;;;;;;;;;2.00;0.00;;;;;12.48;62.40;99396.09;5065610;28;45553;-39
2022/11/16 03:56:26;;;;;;;;;2.00;0.00;;;;;12.52;62.37;99394.13;5076484;27;46169;-39
2022/11/16 03:58:52;;;;;;;;;3.25;2.00;;;;;12.55;62.47;99396.56;5076386;28;61007;-39
2022/11/16 04:01:17;;;;;;;;;3.50;2.00;;;;;12.57;62.63;99394.72;5073449;28;45264;-39
2022/11/16 04:03:42;;;;;;;;;1.00;0.00;;;;;12.59;62.26;99395.47;5066514;27;70463;-39
2022/11/16 04:25:49;;;;;;;;;1.00;0.75;;;;;12.49;62.00;99374.16;5077658;27;45722;-39
2022/11/16 04:28:15;;;;;;;;;1.00;1.00;;;;;12.51;62.00;99376.69;5061463;28;48495;-39
2022/11/16 04:38:56;;;;;;;;;1.50;1.00;;;;;12.50;62.65;99378.47;5067057;28;45395;-39
2022/11/16 04:44:06;;;;;;;;;1.75;1.00;;;;;12.48;62.48;99366.34;5068721;28;45402;-39
2022/11/16 04:49:15;;;;;;;;;0.25;0.00;;;;;12.53;62.70;99372.19;5078464;28;45300;-39
2022/11/16 04:51:40;;;;;;;;;2.25;1.00;;;;;12.51;62.38;99367.03;5073575;27;73274;-39
2022/11/16 04:54:06;;;;;;;;;1.75;1.00;;;;;12.51;62.39;99367.03;5073536;27;51582;-39
2022/11/16 04:56:31;;;;;;;;;1.00;1.00;;;;;12.51;62.55;99368.81;5075700;27;69184;-39
2022/11/16 04:58:56;;;;;;;;;1.25;1.00;;;;;12.52;62.82;99362.66;5079139;28;60460;-39
2022/11/16 05:02:06;;;;;;;;;0.25;0.25;;;;;12.52;62.50;99352.16;5081048;27;73338;-38
2022/11/16 05:04:07;;;;;;;;;1.00;0.25;;;;;12.53;62.51;99349.41;5074766;28;45450;-38
2022/11/16 05:06:32;;;;;;;;;2.50;1.00;;;;;12.47;62.87;99352.41;5074666;28;62076;-39
2022/11/16 05:08:57;;;;;;;;;1.75;0.50;;;;;12.42;62.41;99359.69;5072610;28;71076;-39
2022/11/16 05:11:23;;;;;;;;;0.25;0.25;;;;;12.39;62.65;99359.00;5071971;28;68981;-39
2022/11/16 05:13:48;;;;;;;;;1.00;0.75;;;;;12.38;63.21;99358.19;5071480;28;56092;-39
2022/11/16 05:16:13;;;;;;;;;1.00;0.00;;;;;12.38;63.02;99352.94;5053473;28;66810;-39
2022/11/16 05:18:39;;;;;;;;;1.25;0.25;;;;;12.41;63.17;99357.16;5061316;27;67633;-39
2022/11/16 05:21:05;;;;;;;;;1.75;0.00;;;;;12.42;63.16;99358.84;5066447;28;70824;-39
2022/11/16 05:26:14;;;;;;;;;0.00;0.00;;;;;12.47;62.86;99355.03;5076435;28;45401;-39
2022/11/16 05:28:40;;;;;;;;;3.00;1.00;;;;;12.48;63.00;99355.88;5073813;28;45354;-39
2022/11/16 05:31:05;;;;;;;;;1.00;1.00;;;;;12.51;62.83;99353.06;5049124;28;50194;-39
2022/11/16 05:33:30;;;;;;;;;0.25;0.00;;;;;12.50;63.07;99344.38;5078685;27;63489;-39
2022/11/16 05:35:56;;;;;;;;;2.25;0.75;;;;;12.47;63.42;99347.16;5078282;28;47331;-40
2022/11/16 05:38:21;;;;;;;;;1.00;1.00;;;;;12.47;62.89;99352.41;5067618;27;46361;-39
2022/11/16 05:40:46;;;;;;;;;1.00;0.75;;;;;12.46;63.53;99347.25;5071665;27;68497;-43
2022/11/16 05:43:12;;;;;;;;;1.25;1.00;;;;;12.46;62.90;99339.38;5073442;27;56239;-41
2022/11/16 05:45:37;;;;;;;;;1.00;0.50;;;;;12.47;63.46;99344.53;5076712;27;45642;-40
2022/11/16 05:48:03;;;;;;;;;1.00;0.75;;;;;12.48;63.19;99332.25;5077454;28;46303;-40
2022/11/16 05:50:28;;;;;;;;;1.00;1.00;;;;;12.45;62.95;99335.91;5078178;27;55349;-40
2022/11/16 05:52:56;;;;;;;;;2.75;1.00;;;;;12.45;63.42;99337.69;5066678;27;45821;-40
2022/11/16 05:55:21;;;;;;;;;6.50;1.50;;;;;12.42;63.09;99343.09;5076718;27;45499;-39
2022/11/16 05:57:47;;;;;;;;;3.00;2.00;;;;;12.42;63.34;99343.09;5075483;27;69018;-40
2022/11/16 06:00:13;;;;;;;;;4.00;2.00;;;;;12.39;63.44;99338.88;5065210;28;67001;-39
2022/11/16 06:02:38;;;;;;;;;1.00;1.00;;;;;12.38;63.59;99339.81;5075130;27;45539;-40
2022/11/16 06:05:04;;;;;;;;;1.00;1.00;;;;;12.40;63.27;99344.97;5065203;27;46999;-39
2022/11/16 06:07:29;;;;;;;;;1.00;1.00;;;;;12.38;63.52;99341.56;5076403;28;46271;-40
2022/11/16 06:09:55;;;;;;;;;1.75;1.75;;;;;12.38;63.57;99344.19;5067803;28;68739;-40
2022/11/16 06:12:20;;;;;;;;;3.00;1.00;;;;;12.39;63.69;99341.50;5067892;28;60416;-39
2022/11/16 06:14:45;;;;;;;;;5.00;2.00;;;;;12.40;63.37;99350.22;5065723;27;45528;-39
2022/11/16 06:17:13;;;;;;;;;2.75;2.00;;;;;12.37;63.86;99343.34;5063787;27;71813;-39
2022/11/16 06:19:39;;;;;;;;;3.50;1.00;;;;;12.39;63.32;99348.53;5070334;28;45241;-39
2022/11/16 06:22:04;;;;;;;;;4.00;1.00;;;;;12.37;63.89;99355.63;5064012;27;45517;-40
2022/11/16 06:24:30;;;;;;;;;1.00;1.00;;;;;12.38;63.82;99352.06;5062249;28;45775;-39
2022/11/16 06:26:55;;;;;;;;;3.00;1.25;;;;;12.38;64.09;99345.06;5066251;28;67993;-39
2022/11/16 06:29:20;;;;;;;;;4.25;2.00;;;;;12.40;64.10;99358.09;5067553;28;60593;-39
2022/11/16 06:31:46;;;;;;;;;3.25;1.00;;;;;12.40;63.59;99344.97;5067817;27;45802;-39
2022/11/16 06:34:11;;;;;;;;;1.00;1.00;;;;;12.41;63.53;99350.16;5056697;28;65121;-40
2022/11/16 06:36:36;;;;;;;;;2.25;2.00;;;;;12.41;63.49;99341.41;5069520;27;71988;-40
2022/11/16 06:39:02;;;;;;;;;0.50;0.50;;;;;12.41;63.39;99346.66;5068842;28;70815;-40
2022/11/16 06:41:27;;;;;;;;;5.25;1.50;;;;;12.38;63.72;99350.31;5075807;27;45375;-41
2022/11/16 06:43:53;;;;;;;;;4.25;1.00;;;;;12.35;63.93;99342.59;5084218;27;45382;-40
2022/11/16 06:46:18;;;;;;;;;6.00;1.75;;;;;12.35;63.76;99350.47;5065442;28;48780;-41
2022/11/16 06:48:43;;;;;;;;;4.75;1.75;;;;;12.35;63.56;99353.09;5069317;27;45232;-41
2022/11/16 06:51:09;;;;;;;;;2.25;2.00;;;;;12.33;63.63;99349.72;5077192;28;59050;-40
2022/11/16 06:53:34;;;;;;;;;1.50;1.00;;;;;12.31;64.18;99339.31;5079028;27;45235;-41
2022/11/16 06:56:04;;;;;;;;;4.00;1.00;;;;;12.34;64.02;99347.00;5066228;28;47438;-41
2022/11/16 06:58:30;;;;;;;;;3.75;2.00;;;;;12.35;64.13;99348.69;5079889;27;45316;-40
2022/11/16 07:00:56;;;;;;;;;1.00;1.00;;;;;12.35;63.97;99356.56;5078857;27;45275;-40
2022/11/16 07:03:21;;;;;;;;;2.00;1.00;;;;;12.38;63.69;99357.31;5075230;27;45235;-41
2022/11/16 07:05:47;;;;;;;;;2.00;1.00;;;;;12.37;63.67;99347.78;5072818;27;49837;-40
2022/11/16 07:08:12;;;;;;;;;3.50;1.00;;;;;12.37;63.70;99347.78;5073046;27;52131;-42
2022/11/16 07:10:37;;;;;;;;;5.50;2.00;;;;;12.37;63.64;99351.22;5069798;27;55597;-42
2022/11/16 07:13:03;;;;;;;;;2.25;1.00;;;;;12.35;64.03;99350.47;5074381;27;48716;-41
2022/11/16 07:15:29;;;;;;;;;3.00;1.00;;;;;12.38;63.91;99354.69;5075888;27;46342;-41
2022/11/16 07:17:54;;;;;;;;;2.25;1.00;;;;;12.39;64.25;99351.16;5076904;27;45394;-41
2022/11/16 07:20:21;;;;;;;;;3.00;1.00;;;;;12.42;63.98;99356.22;5072018;27;55473;-42
2022/11/16 07:22:47;;;;;;;;;1.00;1.00;;;;;12.45;63.80;99359.53;5081770;27;47107;-40
2022/11/16 07:25:12;;;;;;;;;3.00;2.25;;;;;12.48;64.24;99359.34;5072370;27;63329;-40
2022/11/16 07:27:37;;;;;;;;;5.25;1.75;;;;;12.49;63.90;99358.41;5074115;27;45335;-41
2022/11/16 07:30:04;;;;;;;;;4.00;2.00;;;;;12.53;64.00;99364.31;5081724;27;45391;-40
2022/11/16 07:32:29;;;;;;;;;2.00;1.25;;;;;12.53;63.94;99364.31;5070109;27;45442;-40
2022/11/16 07:34:55;;;;;;;;;3.00;3.00;;;;;12.56;64.27;99363.31;5068446;27;46765;-39
2022/11/16 07:37:20;;;;;;;;;1.50;1.50;;;;;12.56;63.94;99358.06;5065711;27;45307;-41
2022/11/16 07:39:46;;;;;;;;;4.75;3.50;;;;;12.58;64.60;99350.94;5073993;28;45290;-42
2022/11/16 07:42:11;;;;;;;;;4.25;4.00;;;;;12.62;64.05;99348.03;5071800;27;45290;-40
2022/11/16 07:44:37;;;;;;;;;3.25;2.00;;;;;12.67;64.01;99356.50;5082283;27;45976;-41
2022/11/16 07:47:03;;;;;;;;;5.25;4.00;;;;;12.73;64.25;99350.06;5072762;28;45432;-40
2022/11/16 07:49:29;;;;;;;;;4.50;3.00;;;;;12.74;64.15;99351.75;5077196;28;45371;-41
2022/11/16 07:51:55;;;;;;;;;6.50;3.00;;;;;12.77;64.29;99348.13;5069654;28;45431;-40
2022/11/16 07:54:20;;;;;;;;;6.75;3.75;;;;;12.79;64.59;99348.88;5077876;27;45392;-45
2022/11/16 07:56:46;;;;;;;;;4.25;4.00;;;;;12.79;64.09;99349.69;5081663;28;46352;-40
2022/11/16 07:59:11;;;;;;;;;5.75;3.25;;;;;12.83;64.21;99342.50;5074513;27;45926;-40
2022/11/16 08:01:36;;;;;;;;;8.00;3.00;;;;;12.86;64.18;99352.81;5075237;27;45407;-40
2022/11/16 08:04:02;;;;;;;;;4.00;3.75;;;;;12.87;64.00;99355.34;5079830;27;46148;-40
2022/11/16 08:06:29;;;;;;;;;5.00;3.00;;;;;12.90;64.26;99356.94;5075104;27;45813;-40
2022/11/16 08:08:55;;;;;;;;;3.00;3.00;;;;;12.95;63.74;99351.44;5075767;27;45374;-41
2022/11/16 08:11:20;;;;;;;;;7.00;4.00;;;;;12.99;64.25;99355.56;5066642;27;45254;-40
2022/11/16 08:13:46;;;;;;;;;8.00;3.00;;;;;13.02;63.79;99355.38;5080196;27;62708;-41
2022/11/16 08:16:14;;;;;;;;;8.25;5.25;;;;;13.06;64.14;99367.38;5070891;27;45386;-41
2022/11/16 08:18:40;;;;;;;;;5.50;3.00;;;;;13.09;64.08;99360.16;5070870;27;45485;-42
2022/11/16 08:21:07;;;;;;;;;13.00;6.00;;;;;13.10;63.68;99351.38;5074286;28;45454;-41
2022/11/16 08:23:33;;;;;;;;;6.00;5.00;;;;;13.08;64.17;99361.13;5065154;27;45338;-41
2022/11/16 08:26:00;;;;;;;;;15.50;6.00;;;;;13.11;64.04;99355.66;5084132;27;46114;-42
2022/11/16 08:28:26;;;;;;;;;10.00;6.00;;;;;13.15;63.76;99358.97;5078767;28;45527;-40
2022/11/16 08:30:52;;;;;;;;;4.75;4.00;;;;;13.15;64.34;99353.69;5077805;27;45408;-40
2022/11/16 08:33:20;;;;;;;;;3.75;3.25;;;;;13.19;64.25;99370.13;5081678;27;55318;-40
2022/11/16 08:35:46;;;;;;;;;7.75;5.00;;;;;13.19;64.32;99368.38;5074624;27;45293;-40
2022/11/16 08:38:12;;;;;;;;;8.00;6.00;;;;;13.23;63.96;99358.50;5081105;27;45421;-40
2022/11/16 08:40:37;;;;;;;;;4.50;4.00;;;;;13.25;64.23;99360.09;5066988;27;46432;-41
2022/11/16 08:43:03;;;;;;;;;3.75;3.00;;;;;13.29;64.16;99360.75;5076239;28;72957;-43
2022/11/16 08:45:28;;;;;;;;;8.75;3.00;;;;;13.32;63.67;99355.34;5074880;28;66098;-42
2022/11/16 08:47:53;;;;;;;;;4.75;3.75;;;;;13.32;64.03;99360.63;5075398;27;45836;-41
2022/11/16 08:50:19;;;;;;;;;6.75;4.00;;;;;13.33;63.87;99356.19;5072717;28;58174;-41
2022/11/16 08:52:44;;;;;;;;;4.25;3.00;;;;;13.35;64.08;99346.44;5071105;28;46819;-41
2022/11/16 08:55:12;;;;;;;;;6.00;4.75;;;;;13.39;64.02;99338.28;5074018;27;45397;-41
2022/11/16 08:57:38;;;;;;;;;4.00;4.00;;;;;13.42;64.31;99327.59;5084572;27;45508;-41
2022/11/16 09:00:05;;;;;;;;;7.00;4.00;;;;;13.45;64.40;99330.00;5075440;27;45379;-41
2022/11/16 09:02:30;;;;;;;;;3.50;3.50;;;;;13.48;64.28;99329.81;5078319;27;45446;-40
2022/11/16 09:04:56;;;;;;;;;5.50;3.00;;;;;13.50;64.45;99334.16;5070530;27;64542;-41
2022/11/16 09:07:21;;;;;;;;;6.75;3.00;;;;;13.52;64.57;99341.00;5071727;28;45258;-42
2022/11/16 09:09:46;;;;;;;;;8.25;3.25;;;;;13.47;64.32;99340.44;5074752;27;45689;-41
2022/11/16 09:12:12;;;;;;;;;5.00;4.00;;;;;13.51;64.74;99343.72;5063008;28;46060;-42
2022/11/16 09:14:37;;;;;;;;;7.00;3.00;;;;;13.52;64.86;99338.38;5061101;27;63727;-41
2022/11/16 09:17:03;;;;;;;;;5.00;2.75;;;;;13.54;65.01;99331.22;5084519;27;45277;-41
2022/11/16 09:19:28;;;;;;;;;4.25;2.00;;;;;13.58;64.62;99338.00;5067362;28;45368;-43
2022/11/16 09:21:53;;;;;;;;;8.50;3.00;;;;;13.60;64.61;99336.13;5079326;27;65417;-40
2022/11/16 09:24:19;;;;;;;;;5.75;2.00;;;;;13.61;64.36;99343.03;5074870;27;47051;-41
2022/11/16 09:26:44;;;;;;;;;6.75;4.00;;;;;13.64;64.77;99352.53;5066997;27;45396;-41
2022/11/16 09:29:12;;;;;;;;;9.25;2.75;;;;;13.68;64.53;99341.72;5068922;27;45635;-42
2022/11/16 09:31:37;;;;;;;;;3.75;2.75;;;;;13.73;64.73;99346.72;5075630;28;45379;-40
2022/11/16 09:34:03;;;;;;;;;7.75;4.00;;;;;13.79;64.89;99327.06;5077976;27;68634;-40
2022/11/16 09:36:29;;;;;;;;;4.25;3.00;;;;;13.84;64.69;99330.25;5072878;28;45244;-42
2022/11/16 09:38:55;;;;;;;;;6.50;4.75;;;;;13.91;64.41;99330.72;5078913;27;45157;-40
2022/11/16 09:41:46;;;;;;;;;3.00;3.00;;;;;13.96;64.10;99326.00;5068633;28;45311;-40
2022/11/16 09:44:33;;;;;;;;;5.00;4.00;;;;;13.98;64.01;99327.59;5066633;28;45199;-40
2022/11/16 09:47:00;;;;;;;;;1.50;1.50;;;;;14.00;63.99;99314.34;5072226;27;45411;-40
2022/11/16 09:49:32;;;;;;;;;8.75;2.75;;;;;14.03;64.18;99311.53;5057448;28;45305;-41
2022/11/16 09:52:01;;;;;;;;;4.75;3.00;;;;;14.06;64.44;99313.97;5064115;27;47056;-41
2022/11/16 09:54:31;;;;;;;;;5.75;4.00;;;;;14.13;64.17;99312.63;5048505;28;45983;-40
2022/11/16 09:56:59;;;;;;;;;3.00;3.00;;;;;14.16;64.12;99315.03;5072050;27;45491;-42
2022/11/16 09:59:36;;;;;;;;;4.00;3.00;;;;;14.16;63.58;99314.19;5066270;28;45216;-40
2022/11/16 10:02:19;;;;;;;;;6.00;2.75;;;;;14.19;63.93;99317.47;5069049;28;45552;-43
2022/11/16 10:04:57;;;;;;;;;5.75;3.00;;;;;14.23;63.79;99313.69;5067736;28;45502;-39
2022/11/16 10:07:26;;;;;;;;;4.75;2.00;;;;;14.27;63.73;99311.75;5070580;28;45537;-40
2022/11/16 10:09:54;;;;;;;;;6.25;3.75;;;;;14.29;63.54;99308.97;5067223;27;45394;-40
2022/11/16 10:12:58;;;;;;;;;1.25;1.25;;;;;14.34;63.41;99314.78;5073571;28;45566;-41
2022/11/16 10:15:35;;;;;;;;;3.50;3.50;;;;;14.39;63.31;99323.22;5072001;28;45375;-40
2022/11/16 10:18:34;;;;;;;;;5.25;3.75;;;;;14.40;63.36;99317.88;5076287;27;45293;-40
2022/11/16 10:21:41;;;;;;;;;4.00;3.00;;;;;14.43;63.22;99317.69;5070082;27;45460;-40
2022/11/16 10:24:55;;;;;;;;;7.25;3.50;;;;;14.49;63.13;99323.50;5045318;28;45443;-40
2022/11/16 10:27:26;;;;;;;;;7.50;4.00;;;;;14.54;62.75;99335.38;5031851;28;45973;-40
2022/11/16 10:30:07;;;;;;;;;5.75;3.25;;;;;14.54;62.86;99324.88;5067838;28;45378;-43
2022/11/16 10:32:46;;;;;;;;;7.75;3.75;;;;;14.57;62.62;99326.44;5069667;28;45531;-41
2022/11/16 10:35:16;;;;;;;;;4.00;3.50;;;;;14.60;62.82;99336.81;5069614;28;46394;-41
2022/11/16 10:37:47;;;;;;;;;7.33;5.00;;;;;14.66;62.56;99339.03;5031160;27;1134591;-41
2022/11/16 10:40:21;;;;;;;;;4.75;3.25;;;;;14.70;62.58;99326.53;5076165;28;45520;-41
2022/11/16 10:42:53;;;;;;;;;2.25;2.25;;;;;14.71;62.37;99321.13;5072743;27;45355;-42
2022/11/16 10:45:23;;;;;;;;;5.25;2.00;;;;;14.71;62.19;99325.56;5073682;27;46115;-45
2022/11/16 10:48:14;;;;;;;;;6.75;2.50;;;;;14.69;61.22;99317.75;5075720;28;45405;-44
2022/11/16 10:50:46;;;;;;;;;4.00;3.00;;;;;14.69;61.83;99312.50;5068088;27;45216;-42
2022/11/16 10:53:13;;;;;;;;;2.50;2.50;;;;;14.68;61.57;99300.28;5084539;27;45330;-41
2022/11/16 10:55:38;;;;;;;;;2.00;1.50;;;;;14.63;61.30;99291.84;5076318;28;45313;-42
2022/11/16 10:58:05;;;;;;;;;6.00;4.00;;;;;14.68;61.60;99283.63;5067688;27;73387;-41
2022/11/16 11:00:47;;;;;;;;;4.75;2.50;;;;;14.70;60.99;99285.22;5071564;28;45316;-40
2022/11/16 11:03:12;;;;;;;;;4.00;1.50;;;;;14.70;60.91;99285.22;5077469;27;45579;-40
2022/11/16 11:05:51;;;;;;;;;2.00;2.00;;;;;14.73;61.13;99284.16;5060365;27;45366;-40
2022/11/16 11:08:29;;;;;;;;;1.50;0.50;;;;;14.75;61.14;99283.13;5064179;27;45370;-41
2022/11/16 11:12:36;;;;;;;;;4.25;1.75;;;;;14.76;60.72;99281.31;5067499;27;45478;-41
2022/11/16 11:14:09;;;;;;;;;3.25;1.75;;;;;14.77;60.89;99277.75;5062919;28;45493;-41
2022/11/16 11:16:34;;;;;;;;;3.25;3.25;;;;;14.78;60.95;99263.63;5061737;28;45472;-40
2022/11/16 11:19:23;;;;;;;;;8.50;3.00;;;;;14.79;60.86;99278.50;5073446;27;71609;-40
2022/11/16 11:21:48;;;;;;;;;6.25;1.50;;;;;14.79;60.76;99278.50;5077234;28;45364;-40
2022/11/16 11:24:16;;;;;;;;;2.75;1.75;;;;;14.81;60.60;99271.31;5074415;27;45511;-40
2022/11/16 11:26:42;;;;;;;;;4.75;3.25;;;;;14.84;60.08;99267.63;5068541;27;46247;-40
2022/11/16 11:29:26;;;;;;;;;2.50;1.50;;;;;14.87;60.88;99265.63;5104339;27;45406;-44
2022/11/16 11:31:56;;;;;;;;;4.75;0.75;;;;;14.89;60.22;99244.44;5077329;27;45478;-41
2022/11/16 11:34:27;;;;;;;;;2.50;2.00;;;;;14.93;60.33;99243.31;5074283;27;45764;-41
2022/11/16 11:36:55;;;;;;;;;5.75;3.00;;;;;14.97;60.01;99242.97;5071456;28;46661;-39
2022/11/16 11:39:20;;;;;;;;;5.75;2.75;;;;;15.00;60.04;99240.13;5080571;28;45878;-42
2022/11/16 11:42:06;;;;;;;;;3.00;1.33;;;;;15.05;59.65;99246.88;5075206;28;45462;-39
2022/11/16 11:44:46;;;;;;;;;5.25;3.00;;;;;15.09;59.42;99241.28;5073831;28;45345;-42
2022/11/16 11:47:45;;;;;;;;;6.00;3.50;;;;;15.13;59.85;99241.91;5070853;27;46179;-41
2022/11/16 11:50:18;;;;;;;;;3.50;3.25;;;;;15.17;59.50;99238.09;5073792;27;45517;-43
2022/11/16 11:52:44;;;;;;;;;5.50;2.75;;;;;15.19;59.33;99239.72;5108770;27;45426;-40
2022/11/16 11:55:14;;;;;;;;;4.00;2.25;;;;;15.23;59.03;99242.09;5075191;28;45367;-43
2022/11/16 11:57:42;;;;;;;;;5.25;2.00;;;;;15.27;59.44;99243.59;5081245;27;46124;-42
2022/11/16 12:00:12;;;;;;;;;6.25;4.00;;;;;15.32;59.43;99236.22;5076435;27;45474;-41
2022/11/16 12:03:03;;;;;;;;;3.50;2.00;;;;;15.36;59.25;99241.13;5080408;27;45372;-40
2022/11/16 12:05:46;;;;;;;;;3.75;2.75;;;;;15.39;59.58;99224.28;5077096;27;45403;-40
2022/11/16 12:08:53;;;;;;;;;5.50;2.75;;;;;15.40;59.40;99217.19;5073860;27;46864;-41
2022/11/16 12:11:36;;;;;;;;;5.00;3.75;;;;;15.37;58.21;99229.66;5080664;27;45351;-40
2022/11/16 12:14:27;;;;;;;;;7.00;3.75;;;;;15.36;58.33;99219.22;5081471;27;45340;-41
2022/11/16 12:17:13;;;;;;;;;4.75;4.25;;;;;15.36;58.42;99227.94;5070635;28;45457;-41
2022/11/16 12:19:56;;;;;;;;;5.50;4.50;;;;;15.38;58.37;99223.41;5074811;27;45429;-41
2022/11/16 12:22:21;;;;;;;;;9.25;5.00;;;;;15.40;58.04;99211.94;5066794;28;45284;-41
2022/11/16 12:25:14;;;;;;;;;6.00;6.00;;;;;15.41;57.89;99214.47;5068568;28;45209;-41
2022/11/16 12:27:55;;;;;;;;;17.00;13.25;;;;;15.42;57.58;99210.84;5076544;27;45468;-40